sensor_id;sensor_type;location;lat;lon;timestamp;P1;durP1;ratioP1;P2;durP2;ratioP2
55609;SDS011;41486;52.502;13.486;2023-08-01T00:00:51;3.85;;;1.90;;
55609;SDS011;41486;52.502;13.486;2023-08-01T00:03:19;3.40;;;2.30;;
55609;SDS011;41486;52.502;13.486;2023-08-01T00:05:47;5.18;;;2.13;;
55609;SDS011;41486;52.502;13.486;2023-08-01T00:08:15;4.30;;;2.13;;
55609;SDS011;41486;52.502;13.486;2023-08-01T00:10:43;3.35;;;2.13;;
55609;SDS011;41486;52.502;13.486;2023-08-01T00:13:11;4.53;;;2.10;;
55609;SDS011;41486;52.502;13.486;2023-08-01T00:15:40;5.82;;;2.30;;
55609;SDS011;41486;52.502;13.486;2023-08-01T00:18:19;4.40;;;1.90;;
55609;SDS011;41486;52.502;13.486;2023-08-01T00:20:47;3.53;;;2.22;;
55609;SDS011;41486;52.502;13.486;2023-08-01T00:23:15;3.28;;;1.80;;
55609;SDS011;41486;52.502;13.486;2023-08-01T00:25:43;2.92;;;2.00;;
55609;SDS011;41486;52.502;13.486;2023-08-01T00:28:11;2.45;;;1.92;;
55609;SDS011;41486;52.502;13.486;2023-08-01T00:30:41;5.22;;;2.25;;
55609;SDS011;41486;52.502;13.486;2023-08-01T00:33:09;3.15;;;2.20;;
55609;SDS011;41486;52.502;13.486;2023-08-01T00:35:37;4.40;;;2.00;;
55609;SDS011;41486;52.502;13.486;2023-08-01T00:38:05;2.60;;;1.92;;
55609;SDS011;41486;52.502;13.486;2023-08-01T00:40:33;3.22;;;2.22;;
55609;SDS011;41486;52.502;13.486;2023-08-01T00:43:01;4.20;;;2.05;;
55609;SDS011;41486;52.502;13.486;2023-08-01T00:45:29;3.35;;;2.03;;
55609;SDS011;41486;52.502;13.486;2023-08-01T00:47:59;2.50;;;1.70;;
55609;SDS011;41486;52.502;13.486;2023-08-01T00:50:27;2.95;;;1.88;;
55609;SDS011;41486;52.502;13.486;2023-08-01T00:52:55;5.57;;;1.48;;
55609;SDS011;41486;52.502;13.486;2023-08-01T00:55:24;2.40;;;1.45;;
55609;SDS011;41486;52.502;13.486;2023-08-01T00:57:55;2.38;;;1.40;;
55609;SDS011;41486;52.502;13.486;2023-08-01T01:00:22;2.65;;;1.95;;
55609;SDS011;41486;52.502;13.486;2023-08-01T01:02:51;2.88;;;1.65;;
55609;SDS011;41486;52.502;13.486;2023-08-01T01:05:21;2.28;;;1.52;;
55609;SDS011;41486;52.502;13.486;2023-08-01T01:07:51;1.92;;;1.52;;
55609;SDS011;41486;52.502;13.486;2023-08-01T01:10:20;2.50;;;1.58;;
55609;SDS011;41486;52.502;13.486;2023-08-01T01:12:48;3.33;;;1.45;;
55609;SDS011;41486;52.502;13.486;2023-08-01T01:15:16;3.35;;;1.92;;
55609;SDS011;41486;52.502;13.486;2023-08-01T01:17:45;3.40;;;2.00;;
55609;SDS011;41486;52.502;13.486;2023-08-01T01:20:13;3.45;;;2.00;;
55609;SDS011;41486;52.502;13.486;2023-08-01T01:22:42;4.28;;;2.20;;
55609;SDS011;41486;52.502;13.486;2023-08-01T01:25:11;3.67;;;2.00;;
55609;SDS011;41486;52.502;13.486;2023-08-01T01:27:39;2.08;;;1.45;;
55609;SDS011;41486;52.502;13.486;2023-08-01T01:30:08;2.22;;;1.52;;
55609;SDS011;41486;52.502;13.486;2023-08-01T01:32:37;4.03;;;2.25;;
55609;SDS011;41486;52.502;13.486;2023-08-01T01:35:06;3.92;;;2.00;;
55609;SDS011;41486;52.502;13.486;2023-08-01T01:37:34;3.15;;;2.05;;
55609;SDS011;41486;52.502;13.486;2023-08-01T01:40:04;4.18;;;2.20;;
55609;SDS011;41486;52.502;13.486;2023-08-01T01:42:33;3.92;;;2.03;;
55609;SDS011;41486;52.502;13.486;2023-08-01T01:45:01;2.83;;;2.00;;
55609;SDS011;41486;52.502;13.486;2023-08-01T01:47:29;2.90;;;1.80;;
55609;SDS011;41486;52.502;13.486;2023-08-01T01:49:58;4.20;;;2.42;;
55609;SDS011;41486;52.502;13.486;2023-08-01T01:52:25;2.58;;;1.85;;
55609;SDS011;41486;52.502;13.486;2023-08-01T01:54:53;3.75;;;2.78;;
55609;SDS011;41486;52.502;13.486;2023-08-01T01:57:23;4.07;;;2.50;;
55609;SDS011;41486;52.502;13.486;2023-08-01T01:59:51;6.78;;;2.28;;
55609;SDS011;41486;52.502;13.486;2023-08-01T02:02:19;3.58;;;2.40;;
55609;SDS011;41486;52.502;13.486;2023-08-01T02:04:47;4.72;;;3.00;;
55609;SDS011;41486;52.502;13.486;2023-08-01T02:07:18;4.40;;;2.80;;
55609;SDS011;41486;52.502;13.486;2023-08-01T02:09:46;6.15;;;2.40;;
55609;SDS011;41486;52.502;13.486;2023-08-01T02:12:14;6.00;;;2.47;;
55609;SDS011;41486;52.502;13.486;2023-08-01T02:14:44;3.53;;;2.47;;
55609;SDS011;41486;52.502;13.486;2023-08-01T02:17:12;3.40;;;1.90;;
55609;SDS011;41486;52.502;13.486;2023-08-01T02:19:40;4.78;;;2.50;;
55609;SDS011;41486;52.502;13.486;2023-08-01T02:22:08;4.22;;;2.50;;
55609;SDS011;41486;52.502;13.486;2023-08-01T02:24:36;4.25;;;2.88;;
55609;SDS011;41486;52.502;13.486;2023-08-01T02:27:04;3.58;;;2.38;;
55609;SDS011;41486;52.502;13.486;2023-08-01T02:29:33;3.65;;;2.20;;
55609;SDS011;41486;52.502;13.486;2023-08-01T02:32:03;5.15;;;2.58;;
55609;SDS011;41486;52.502;13.486;2023-08-01T02:34:32;4.90;;;2.20;;
55609;SDS011;41486;52.502;13.486;2023-08-01T02:37:00;4.25;;;2.58;;
55609;SDS011;41486;52.502;13.486;2023-08-01T02:39:28;6.07;;;2.97;;
55609;SDS011;41486;52.502;13.486;2023-08-01T02:41:56;5.28;;;2.50;;
55609;SDS011;41486;52.502;13.486;2023-08-01T02:44:24;3.60;;;2.75;;
55609;SDS011;41486;52.502;13.486;2023-08-01T02:46:54;7.05;;;3.00;;
55609;SDS011;41486;52.502;13.486;2023-08-01T02:49:23;3.85;;;2.50;;
55609;SDS011;41486;52.502;13.486;2023-08-01T02:51:51;4.40;;;2.72;;
55609;SDS011;41486;52.502;13.486;2023-08-01T02:54:19;5.32;;;3.08;;
55609;SDS011;41486;52.502;13.486;2023-08-01T02:56:47;4.03;;;2.53;;
55609;SDS011;41486;52.502;13.486;2023-08-01T02:59:15;5.65;;;3.00;;
55609;SDS011;41486;52.502;13.486;2023-08-01T03:01:44;3.13;;;2.60;;
55609;SDS011;41486;52.502;13.486;2023-08-01T03:04:12;3.15;;;2.38;;
55609;SDS011;41486;52.502;13.486;2023-08-01T03:06:42;4.38;;;2.63;;
55609;SDS011;41486;52.502;13.486;2023-08-01T03:09:10;5.00;;;2.97;;
55609;SDS011;41486;52.502;13.486;2023-08-01T03:11:38;4.65;;;3.00;;
55609;SDS011;41486;52.502;13.486;2023-08-01T03:14:06;8.48;;;2.88;;
55609;SDS011;41486;52.502;13.486;2023-08-01T03:16:34;4.15;;;2.42;;
55609;SDS011;41486;52.502;13.486;2023-08-01T03:19:02;6.35;;;2.58;;
55609;SDS011;41486;52.502;13.486;2023-08-01T03:21:34;2.50;;;1.98;;
55609;SDS011;41486;52.502;13.486;2023-08-01T03:24:04;4.20;;;2.35;;
55609;SDS011;41486;52.502;13.486;2023-08-01T03:26:35;4.43;;;2.90;;
55609;SDS011;41486;52.502;13.486;2023-08-01T03:29:03;3.70;;;2.28;;
55609;SDS011;41486;52.502;13.486;2023-08-01T03:31:32;3.97;;;2.28;;
55609;SDS011;41486;52.502;13.486;2023-08-01T03:34:00;4.85;;;2.38;;
55609;SDS011;41486;52.502;13.486;2023-08-01T03:36:28;3.83;;;2.53;;
55609;SDS011;41486;52.502;13.486;2023-08-01T03:38:56;3.60;;;2.50;;
55609;SDS011;41486;52.502;13.486;2023-08-01T03:41:26;3.47;;;2.55;;
55609;SDS011;41486;52.502;13.486;2023-08-01T03:43:54;5.22;;;2.80;;
55609;SDS011;41486;52.502;13.486;2023-08-01T03:46:22;3.42;;;1.98;;
55609;SDS011;41486;52.502;13.486;2023-08-01T03:48:50;2.88;;;1.88;;
55609;SDS011;41486;52.502;13.486;2023-08-01T03:51:18;5.30;;;2.70;;
55609;SDS011;41486;52.502;13.486;2023-08-01T03:53:48;4.85;;;2.67;;
55609;SDS011;41486;52.502;13.486;2023-08-01T03:56:38;3.40;;;2.10;;
55609;SDS011;41486;52.502;13.486;2023-08-01T03:59:09;3.30;;;2.42;;
55609;SDS011;41486;52.502;13.486;2023-08-01T04:01:37;3.88;;;2.60;;
55609;SDS011;41486;52.502;13.486;2023-08-01T04:04:06;5.35;;;2.10;;
55609;SDS011;41486;52.502;13.486;2023-08-01T04:06:34;2.92;;;2.22;;
55609;SDS011;41486;52.502;13.486;2023-08-01T04:09:02;3.85;;;2.35;;
55609;SDS011;41486;52.502;13.486;2023-08-01T04:11:30;4.78;;;2.50;;
55609;SDS011;41486;52.502;13.486;2023-08-01T04:14:00;4.03;;;2.38;;
55609;SDS011;41486;52.502;13.486;2023-08-01T04:16:28;2.78;;;2.03;;
55609;SDS011;41486;52.502;13.486;2023-08-01T04:18:56;3.40;;;2.28;;
55609;SDS011;41486;52.502;13.486;2023-08-01T04:21:24;3.72;;;1.95;;
55609;SDS011;41486;52.502;13.486;2023-08-01T04:23:52;3.17;;;2.00;;
55609;SDS011;41486;52.502;13.486;2023-08-01T04:26:20;4.90;;;2.55;;
55609;SDS011;41486;52.502;13.486;2023-08-01T04:28:48;2.95;;;1.80;;
55609;SDS011;41486;52.502;13.486;2023-08-01T04:31:17;3.70;;;2.20;;
55609;SDS011;41486;52.502;13.486;2023-08-01T04:33:45;3.42;;;2.10;;
55609;SDS011;41486;52.502;13.486;2023-08-01T04:36:16;3.95;;;1.92;;
55609;SDS011;41486;52.502;13.486;2023-08-01T04:38:44;2.55;;;2.03;;
55609;SDS011;41486;52.502;13.486;2023-08-01T04:41:12;3.10;;;2.30;;
55609;SDS011;41486;52.502;13.486;2023-08-01T04:43:40;3.05;;;1.92;;
55609;SDS011;41486;52.502;13.486;2023-08-01T04:46:08;4.18;;;1.92;;
55609;SDS011;41486;52.502;13.486;2023-08-01T04:48:41;4.65;;;1.95;;
55609;SDS011;41486;52.502;13.486;2023-08-01T04:51:09;2.60;;;1.95;;
55609;SDS011;41486;52.502;13.486;2023-08-01T04:53:37;3.17;;;2.05;;
55609;SDS011;41486;52.502;13.486;2023-08-01T04:56:05;3.00;;;1.85;;
55609;SDS011;41486;52.502;13.486;2023-08-01T04:58:33;2.30;;;1.95;;
55609;SDS011;41486;52.502;13.486;2023-08-01T05:01:01;5.57;;;2.30;;
55609;SDS011;41486;52.502;13.486;2023-08-01T05:03:29;2.33;;;1.58;;
55609;SDS011;41486;52.502;13.486;2023-08-01T05:05:59;3.22;;;1.85;;
55609;SDS011;41486;52.502;13.486;2023-08-01T05:08:27;2.95;;;1.88;;
55609;SDS011;41486;52.502;13.486;2023-08-01T05:10:55;4.20;;;2.05;;
55609;SDS011;41486;52.502;13.486;2023-08-01T05:13:23;2.58;;;2.20;;
55609;SDS011;41486;52.502;13.486;2023-08-01T05:15:51;5.15;;;2.25;;
55609;SDS011;41486;52.502;13.486;2023-08-01T05:18:19;4.40;;;2.42;;
55609;SDS011;41486;52.502;13.486;2023-08-01T05:20:47;2.80;;;2.10;;
55609;SDS011;41486;52.502;13.486;2023-08-01T05:23:16;3.38;;;2.17;;
55609;SDS011;41486;52.502;13.486;2023-08-01T05:25:44;4.85;;;2.30;;
55609;SDS011;41486;52.502;13.486;2023-08-01T05:28:12;2.45;;;1.70;;
55609;SDS011;41486;52.502;13.486;2023-08-01T05:30:41;3.35;;;2.05;;
55609;SDS011;41486;52.502;13.486;2023-08-01T05:33:09;2.67;;;2.13;;
55609;SDS011;41486;52.502;13.486;2023-08-01T05:35:37;2.72;;;2.10;;
55609;SDS011;41486;52.502;13.486;2023-08-01T05:38:05;2.97;;;2.08;;
55609;SDS011;41486;52.502;13.486;2023-08-01T05:40:34;3.58;;;1.65;;
55609;SDS011;41486;52.502;13.486;2023-08-01T05:43:02;4.53;;;2.05;;
55609;SDS011;41486;52.502;13.486;2023-08-01T05:45:31;2.47;;;1.88;;
55609;SDS011;41486;52.502;13.486;2023-08-01T05:47:59;2.30;;;1.75;;
55609;SDS011;41486;52.502;13.486;2023-08-01T05:50:28;3.97;;;1.80;;
55609;SDS011;41486;52.502;13.486;2023-08-01T05:52:56;7.35;;;2.08;;
55609;SDS011;41486;52.502;13.486;2023-08-01T05:55:24;4.53;;;2.10;;
55609;SDS011;41486;52.502;13.486;2023-08-01T05:57:53;2.40;;;1.85;;
55609;SDS011;41486;52.502;13.486;2023-08-01T06:00:21;3.78;;;1.98;;
55609;SDS011;41486;52.502;13.486;2023-08-01T06:02:49;4.18;;;1.73;;
55609;SDS011;41486;52.502;13.486;2023-08-01T06:05:18;2.40;;;1.60;;
55609;SDS011;41486;52.502;13.486;2023-08-01T06:07:46;3.38;;;1.80;;
55609;SDS011;41486;52.502;13.486;2023-08-01T06:10:14;2.72;;;1.92;;
55609;SDS011;41486;52.502;13.486;2023-08-01T06:12:42;2.70;;;1.80;;
55609;SDS011;41486;52.502;13.486;2023-08-01T06:15:15;3.22;;;1.52;;
55609;SDS011;41486;52.502;13.486;2023-08-01T06:17:46;2.60;;;1.77;;
55609;SDS011;41486;52.502;13.486;2023-08-01T06:20:17;3.70;;;1.95;;
55609;SDS011;41486;52.502;13.486;2023-08-01T06:22:45;3.10;;;1.80;;
55609;SDS011;41486;52.502;13.486;2023-08-01T06:25:13;2.80;;;1.90;;
55609;SDS011;41486;52.502;13.486;2023-08-01T06:27:42;3.00;;;1.77;;
55609;SDS011;41486;52.502;13.486;2023-08-01T06:30:10;4.10;;;1.88;;
55609;SDS011;41486;52.502;13.486;2023-08-01T06:32:40;3.78;;;2.20;;
55609;SDS011;41486;52.502;13.486;2023-08-01T06:35:11;5.55;;;2.17;;
55609;SDS011;41486;52.502;13.486;2023-08-01T06:37:39;5.68;;;1.90;;
55609;SDS011;41486;52.502;13.486;2023-08-01T06:40:08;3.42;;;1.90;;
55609;SDS011;41486;52.502;13.486;2023-08-01T06:42:36;2.95;;;1.85;;
55609;SDS011;41486;52.502;13.486;2023-08-01T06:45:05;1.58;;;1.30;;
55609;SDS011;41486;52.502;13.486;2023-08-01T06:47:34;2.38;;;1.80;;
55609;SDS011;41486;52.502;13.486;2023-08-01T06:50:03;3.00;;;1.38;;
55609;SDS011;41486;52.502;13.486;2023-08-01T06:52:32;2.88;;;1.65;;
55609;SDS011;41486;52.502;13.486;2023-08-01T06:55:00;3.22;;;1.80;;
55609;SDS011;41486;52.502;13.486;2023-08-01T06:57:28;2.58;;;2.00;;
55609;SDS011;41486;52.502;13.486;2023-08-01T06:59:57;3.47;;;1.55;;
55609;SDS011;41486;52.502;13.486;2023-08-01T07:02:25;4.35;;;2.40;;
55609;SDS011;41486;52.502;13.486;2023-08-01T07:04:53;3.45;;;1.63;;
55609;SDS011;41486;52.502;13.486;2023-08-01T07:07:23;2.20;;;1.73;;
55609;SDS011;41486;52.502;13.486;2023-08-01T07:09:51;3.13;;;1.83;;
55609;SDS011;41486;52.502;13.486;2023-08-01T07:12:19;3.60;;;1.75;;
55609;SDS011;41486;52.502;13.486;2023-08-01T07:14:47;3.70;;;2.15;;
55609;SDS011;41486;52.502;13.486;2023-08-01T07:17:15;3.83;;;2.00;;
55609;SDS011;41486;52.502;13.486;2023-08-01T07:19:43;2.10;;;1.60;;
55609;SDS011;41486;52.502;13.486;2023-08-01T07:22:11;1.83;;;1.45;;
55609;SDS011;41486;52.502;13.486;2023-08-01T07:24:42;2.63;;;1.40;;
55609;SDS011;41486;52.502;13.486;2023-08-01T07:27:10;2.35;;;1.70;;
55609;SDS011;41486;52.502;13.486;2023-08-01T07:29:39;2.05;;;1.50;;
55609;SDS011;41486;52.502;13.486;2023-08-01T07:32:07;1.75;;;1.65;;
55609;SDS011;41486;52.502;13.486;2023-08-01T07:34:35;2.22;;;1.50;;
55609;SDS011;41486;52.502;13.486;2023-08-01T07:37:03;2.92;;;1.80;;
55609;SDS011;41486;52.502;13.486;2023-08-01T07:39:31;4.88;;;1.63;;
55609;SDS011;41486;52.502;13.486;2023-08-01T07:42:02;2.90;;;1.77;;
55609;SDS011;41486;52.502;13.486;2023-08-01T07:44:32;2.17;;;1.25;;
55609;SDS011;41486;52.502;13.486;2023-08-01T07:47:00;2.03;;;1.48;;
55609;SDS011;41486;52.502;13.486;2023-08-01T07:49:28;1.73;;;1.40;;
55609;SDS011;41486;52.502;13.486;2023-08-01T07:51:56;2.10;;;1.60;;
55609;SDS011;41486;52.502;13.486;2023-08-01T07:54:24;2.70;;;1.70;;
55609;SDS011;41486;52.502;13.486;2023-08-01T07:56:52;2.50;;;1.42;;
55609;SDS011;41486;52.502;13.486;2023-08-01T07:59:22;2.63;;;1.45;;
55609;SDS011;41486;52.502;13.486;2023-08-01T08:01:50;1.55;;;1.20;;
55609;SDS011;41486;52.502;13.486;2023-08-01T08:04:19;3.28;;;1.63;;
55609;SDS011;41486;52.502;13.486;2023-08-01T08:06:47;2.80;;;1.48;;
55609;SDS011;41486;52.502;13.486;2023-08-01T08:09:15;1.55;;;1.25;;
55609;SDS011;41486;52.502;13.486;2023-08-01T08:11:43;1.67;;;1.20;;
55609;SDS011;41486;52.502;13.486;2023-08-01T08:14:11;1.67;;;1.35;;
55609;SDS011;41486;52.502;13.486;2023-08-01T08:16:42;1.80;;;1.40;;
55609;SDS011;41486;52.502;13.486;2023-08-01T08:19:11;3.30;;;1.48;;
55609;SDS011;41486;52.502;13.486;2023-08-01T08:21:39;2.13;;;1.25;;
55609;SDS011;41486;52.502;13.486;2023-08-01T08:24:07;1.52;;;1.13;;
55609;SDS011;41486;52.502;13.486;2023-08-01T08:26:35;1.80;;;1.17;;
55609;SDS011;41486;52.502;13.486;2023-08-01T08:29:06;1.77;;;1.30;;
55609;SDS011;41486;52.502;13.486;2023-08-01T08:31:34;1.65;;;1.25;;
55609;SDS011;41486;52.502;13.486;2023-08-01T08:34:04;2.03;;;1.52;;
55609;SDS011;41486;52.502;13.486;2023-08-01T08:36:32;2.22;;;1.23;;
55609;SDS011;41486;52.502;13.486;2023-08-01T08:39:00;1.67;;;1.00;;
55609;SDS011;41486;52.502;13.486;2023-08-01T08:41:30;1.65;;;1.20;;
55609;SDS011;41486;52.502;13.486;2023-08-01T08:44:07;2.20;;;1.05;;
55609;SDS011;41486;52.502;13.486;2023-08-01T08:46:38;1.38;;;1.10;;
55609;SDS011;41486;52.502;13.486;2023-08-01T08:49:11;1.63;;;1.23;;
55609;SDS011;41486;52.502;13.486;2023-08-01T08:51:42;1.45;;;1.05;;
55609;SDS011;41486;52.502;13.486;2023-08-01T08:54:11;3.60;;;1.00;;
55609;SDS011;41486;52.502;13.486;2023-08-01T08:56:41;1.25;;;1.00;;
55609;SDS011;41486;52.502;13.486;2023-08-01T08:59:10;4.38;;;1.65;;
55609;SDS011;41486;52.502;13.486;2023-08-01T09:01:38;1.45;;;1.23;;
55609;SDS011;41486;52.502;13.486;2023-08-01T09:04:08;1.33;;;0.93;;
55609;SDS011;41486;52.502;13.486;2023-08-01T09:06:40;2.35;;;1.10;;
55609;SDS011;41486;52.502;13.486;2023-08-01T09:09:16;1.75;;;0.93;;
55609;SDS011;41486;52.502;13.486;2023-08-01T09:11:45;1.08;;;0.88;;
55609;SDS011;41486;52.502;13.486;2023-08-01T09:14:14;0.95;;;0.90;;
55609;SDS011;41486;52.502;13.486;2023-08-01T09:16:43;1.42;;;0.90;;
55609;SDS011;41486;52.502;13.486;2023-08-01T09:19:16;1.10;;;1.00;;
55609;SDS011;41486;52.502;13.486;2023-08-01T09:21:46;1.08;;;0.90;;
55609;SDS011;41486;52.502;13.486;2023-08-01T09:24:15;0.73;;;0.70;;
55609;SDS011;41486;52.502;13.486;2023-08-01T09:26:46;0.80;;;0.70;;
55609;SDS011;41486;52.502;13.486;2023-08-01T09:29:16;3.53;;;0.80;;
55609;SDS011;41486;52.502;13.486;2023-08-01T09:31:44;0.93;;;0.55;;
55609;SDS011;41486;52.502;13.486;2023-08-01T09:34:20;0.68;;;0.45;;
55609;SDS011;41486;52.502;13.486;2023-08-01T09:36:50;1.08;;;0.80;;
55609;SDS011;41486;52.502;13.486;2023-08-01T09:39:19;1.05;;;0.88;;
55609;SDS011;41486;52.502;13.486;2023-08-01T09:41:54;1.45;;;0.80;;
55609;SDS011;41486;52.502;13.486;2023-08-01T09:44:23;1.10;;;0.60;;
55609;SDS011;41486;52.502;13.486;2023-08-01T09:46:57;1.35;;;0.60;;
55609;SDS011;41486;52.502;13.486;2023-08-01T09:49:26;1.05;;;0.88;;
55609;SDS011;41486;52.502;13.486;2023-08-01T09:51:56;1.10;;;0.50;;
55609;SDS011;41486;52.502;13.486;2023-08-01T09:54:25;1.65;;;0.50;;
55609;SDS011;41486;52.502;13.486;2023-08-01T09:56:54;0.52;;;0.50;;
55609;SDS011;41486;52.502;13.486;2023-08-01T09:59:23;0.47;;;0.40;;
55609;SDS011;41486;52.502;13.486;2023-08-01T10:01:53;0.75;;;0.47;;
55609;SDS011;41486;52.502;13.486;2023-08-01T10:04:23;1.00;;;0.65;;
55609;SDS011;41486;52.502;13.486;2023-08-01T10:06:57;0.73;;;0.70;;
55609;SDS011;41486;52.502;13.486;2023-08-01T10:09:27;1.75;;;0.60;;
55609;SDS011;41486;52.502;13.486;2023-08-01T10:12:01;0.85;;;0.68;;
55609;SDS011;41486;52.502;13.486;2023-08-01T10:14:32;1.10;;;1.00;;
55609;SDS011;41486;52.502;13.486;2023-08-01T10:17:00;0.73;;;0.65;;
55609;SDS011;41486;52.502;13.486;2023-08-01T10:19:30;1.08;;;0.47;;
55609;SDS011;41486;52.502;13.486;2023-08-01T10:22:01;1.27;;;0.50;;
55609;SDS011;41486;52.502;13.486;2023-08-01T10:24:30;0.90;;;0.70;;
55609;SDS011;41486;52.502;13.486;2023-08-01T10:27:08;0.93;;;0.88;;
55609;SDS011;41486;52.502;13.486;2023-08-01T10:29:39;1.63;;;0.60;;
55609;SDS011;41486;52.502;13.486;2023-08-01T10:32:07;0.50;;;0.50;;
55609;SDS011;41486;52.502;13.486;2023-08-01T10:34:36;0.60;;;0.52;;
55609;SDS011;41486;52.502;13.486;2023-08-01T10:37:06;1.10;;;0.60;;
55609;SDS011;41486;52.502;13.486;2023-08-01T10:39:34;0.75;;;0.50;;
55609;SDS011;41486;52.502;13.486;2023-08-01T10:42:03;1.10;;;0.45;;
55609;SDS011;41486;52.502;13.486;2023-08-01T10:44:44;0.60;;;0.40;;
55609;SDS011;41486;52.502;13.486;2023-08-01T10:47:13;0.68;;;0.63;;
55609;SDS011;41486;52.502;13.486;2023-08-01T10:49:41;0.60;;;0.50;;
55609;SDS011;41486;52.502;13.486;2023-08-01T10:52:18;0.85;;;0.63;;
55609;SDS011;41486;52.502;13.486;2023-08-01T10:54:55;0.52;;;0.40;;
55609;SDS011;41486;52.502;13.486;2023-08-01T10:57:26;2.03;;;1.00;;
55609;SDS011;41486;52.502;13.486;2023-08-01T10:59:55;1.38;;;0.68;;
55609;SDS011;41486;52.502;13.486;2023-08-01T11:02:23;0.55;;;0.45;;
55609;SDS011;41486;52.502;13.486;2023-08-01T11:04:56;0.68;;;0.60;;
55609;SDS011;41486;52.502;13.486;2023-08-01T11:07:27;1.88;;;0.68;;
55609;SDS011;41486;52.502;13.486;2023-08-01T11:10:05;2.08;;;0.60;;
55609;SDS011;41486;52.502;13.486;2023-08-01T11:12:35;0.73;;;0.73;;
55609;SDS011;41486;52.502;13.486;2023-08-01T11:15:05;2.33;;;0.73;;
55609;SDS011;41486;52.502;13.486;2023-08-01T11:17:35;0.65;;;0.65;;
55609;SDS011;41486;52.502;13.486;2023-08-01T11:20:05;0.60;;;0.60;;
55609;SDS011;41486;52.502;13.486;2023-08-01T11:22:36;0.50;;;0.50;;
55609;SDS011;41486;52.502;13.486;2023-08-01T11:25:05;0.70;;;0.70;;
55609;SDS011;41486;52.502;13.486;2023-08-01T11:27:33;1.50;;;0.80;;
55609;SDS011;41486;52.502;13.486;2023-08-01T11:30:02;2.00;;;1.00;;
55609;SDS011;41486;52.502;13.486;2023-08-01T11:32:34;1.38;;;0.75;;
55609;SDS011;41486;52.502;13.486;2023-08-01T11:35:04;1.52;;;0.95;;
55609;SDS011;41486;52.502;13.486;2023-08-01T11:37:32;2.35;;;0.93;;
55609;SDS011;41486;52.502;13.486;2023-08-01T11:40:02;0.85;;;0.63;;
55609;SDS011;41486;52.502;13.486;2023-08-01T11:42:32;3.83;;;1.00;;
55609;SDS011;41486;52.502;13.486;2023-08-01T11:45:10;1.20;;;0.95;;
55609;SDS011;41486;52.502;13.486;2023-08-01T11:47:44;2.22;;;1.30;;
55609;SDS011;41486;52.502;13.486;2023-08-01T11:50:13;3.75;;;1.70;;
55609;SDS011;41486;52.502;13.486;2023-08-01T11:52:45;2.33;;;1.20;;
55609;SDS011;41486;52.502;13.486;2023-08-01T11:55:19;4.68;;;1.60;;
55609;SDS011;41486;52.502;13.486;2023-08-01T11:57:55;1.80;;;1.40;;
55609;SDS011;41486;52.502;13.486;2023-08-01T12:00:25;2.20;;;1.40;;
55609;SDS011;41486;52.502;13.486;2023-08-01T12:03:03;1.88;;;1.33;;
55609;SDS011;41486;52.502;13.486;2023-08-01T12:05:32;1.73;;;1.30;;
55609;SDS011;41486;52.502;13.486;2023-08-01T12:08:07;2.22;;;1.30;;
55609;SDS011;41486;52.502;13.486;2023-08-01T12:10:39;4.25;;;1.30;;
55609;SDS011;41486;52.502;13.486;2023-08-01T12:13:18;2.90;;;1.70;;
55609;SDS011;41486;52.502;13.486;2023-08-01T12:15:48;3.80;;;1.85;;
55609;SDS011;41486;52.502;13.486;2023-08-01T12:18:20;2.10;;;1.50;;
55609;SDS011;41486;52.502;13.486;2023-08-01T12:21:09;2.55;;;1.60;;
55609;SDS011;41486;52.502;13.486;2023-08-01T12:23:37;4.03;;;1.48;;
55609;SDS011;41486;52.502;13.486;2023-08-01T12:26:06;2.13;;;1.35;;
55609;SDS011;41486;52.502;13.486;2023-08-01T12:28:34;2.10;;;1.70;;
55609;SDS011;41486;52.502;13.486;2023-08-01T12:31:03;3.42;;;1.70;;
55609;SDS011;41486;52.502;13.486;2023-08-01T12:33:32;2.65;;;1.60;;
55609;SDS011;41486;52.502;13.486;2023-08-01T12:36:00;3.15;;;2.03;;
55609;SDS011;41486;52.502;13.486;2023-08-01T12:38:29;2.63;;;1.70;;
55609;SDS011;41486;52.502;13.486;2023-08-01T12:40:57;2.30;;;1.70;;
55609;SDS011;41486;52.502;13.486;2023-08-01T12:43:27;2.78;;;1.50;;
55609;SDS011;41486;52.502;13.486;2023-08-01T12:45:55;3.28;;;1.98;;
55609;SDS011;41486;52.502;13.486;2023-08-01T12:48:24;2.50;;;1.70;;
55609;SDS011;41486;52.502;13.486;2023-08-01T12:50:53;5.90;;;1.85;;
55609;SDS011;41486;52.502;13.486;2023-08-01T12:53:21;3.28;;;1.60;;
55609;SDS011;41486;52.502;13.486;2023-08-01T12:58:23;5.47;;;1.73;;
55609;SDS011;41486;52.502;13.486;2023-08-01T13:00:53;2.58;;;2.00;;
55609;SDS011;41486;52.502;13.486;2023-08-01T13:03:21;2.55;;;1.48;;
55609;SDS011;41486;52.502;13.486;2023-08-01T13:05:49;2.42;;;1.88;;
55609;SDS011;41486;52.502;13.486;2023-08-01T13:08:19;3.90;;;1.85;;
55609;SDS011;41486;52.502;13.486;2023-08-01T13:10:47;4.88;;;2.05;;
55609;SDS011;41486;52.502;13.486;2023-08-01T13:13:16;4.10;;;2.08;;
55609;SDS011;41486;52.502;13.486;2023-08-01T13:15:44;2.72;;;1.52;;
55609;SDS011;41486;52.502;13.486;2023-08-01T13:18:14;1.67;;;1.38;;
55609;SDS011;41486;52.502;13.486;2023-08-01T13:20:42;1.48;;;1.30;;
55609;SDS011;41486;52.502;13.486;2023-08-01T13:23:10;3.42;;;1.52;;
55609;SDS011;41486;52.502;13.486;2023-08-01T13:25:38;2.40;;;1.75;;
55609;SDS011;41486;52.502;13.486;2023-08-01T13:28:06;4.35;;;2.08;;
55609;SDS011;41486;52.502;13.486;2023-08-01T13:30:35;2.17;;;1.50;;
55609;SDS011;41486;52.502;13.486;2023-08-01T13:33:03;2.53;;;1.50;;
55609;SDS011;41486;52.502;13.486;2023-08-01T13:35:33;2.28;;;1.58;;
55609;SDS011;41486;52.502;13.486;2023-08-01T13:38:01;3.33;;;1.77;;
55609;SDS011;41486;52.502;13.486;2023-08-01T13:40:31;1.77;;;1.38;;
55609;SDS011;41486;52.502;13.486;2023-08-01T13:42:59;2.33;;;1.73;;
55609;SDS011;41486;52.502;13.486;2023-08-01T13:45:29;2.13;;;1.70;;
55609;SDS011;41486;52.502;13.486;2023-08-01T13:47:58;2.03;;;1.40;;
55609;SDS011;41486;52.502;13.486;2023-08-01T13:50:28;1.90;;;1.48;;
55609;SDS011;41486;52.502;13.486;2023-08-01T13:52:59;2.88;;;1.73;;
55609;SDS011;41486;52.502;13.486;2023-08-01T13:55:27;2.65;;;1.90;;
55609;SDS011;41486;52.502;13.486;2023-08-01T13:57:55;4.30;;;1.80;;
55609;SDS011;41486;52.502;13.486;2023-08-01T14:00:23;1.95;;;1.20;;
55609;SDS011;41486;52.502;13.486;2023-08-01T14:02:51;2.55;;;1.67;;
55609;SDS011;41486;52.502;13.486;2023-08-01T14:05:19;2.85;;;1.38;;
55609;SDS011;41486;52.502;13.486;2023-08-01T14:07:47;2.25;;;1.40;;
55609;SDS011;41486;52.502;13.486;2023-08-01T14:10:17;1.85;;;1.40;;
55609;SDS011;41486;52.502;13.486;2023-08-01T14:12:45;2.88;;;1.30;;
55609;SDS011;41486;52.502;13.486;2023-08-01T14:15:13;2.22;;;1.50;;
55609;SDS011;41486;52.502;13.486;2023-08-01T14:17:41;3.00;;;1.23;;
55609;SDS011;41486;52.502;13.486;2023-08-01T14:20:09;2.10;;;1.58;;
55609;SDS011;41486;52.502;13.486;2023-08-01T14:22:38;2.95;;;1.42;;
55609;SDS011;41486;52.502;13.486;2023-08-01T14:25:08;3.50;;;1.85;;
55609;SDS011;41486;52.502;13.486;2023-08-01T14:27:38;3.15;;;1.50;;
55609;SDS011;41486;52.502;13.486;2023-08-01T14:30:09;2.22;;;1.52;;
55609;SDS011;41486;52.502;13.486;2023-08-01T14:32:37;2.33;;;1.30;;
55609;SDS011;41486;52.502;13.486;2023-08-01T14:35:06;2.38;;;1.40;;
55609;SDS011;41486;52.502;13.486;2023-08-01T14:37:35;1.42;;;1.30;;
55609;SDS011;41486;52.502;13.486;2023-08-01T14:40:04;2.70;;;1.50;;
55609;SDS011;41486;52.502;13.486;2023-08-01T14:42:32;1.88;;;1.50;;
55609;SDS011;41486;52.502;13.486;2023-08-01T14:45:02;4.00;;;1.73;;
55609;SDS011;41486;52.502;13.486;2023-08-01T14:47:31;2.33;;;1.60;;